Atlanta, Missouri
Current Conditions -  °F | °C
As of 8:10 PM on Sunday 23 Nov 2014 (Local Time) from KIRK Reporting Station
Haze Haze  
Wind Chill: 40°   Ceiling: 500
Heat Index: 47°   Visibility: 4mi
Dew Point: 47°   Wind: 17mph
Humidity: 100%   Direction: 330°NNW
Pressure: 29.29"   Gusts: 29mph
Location:  39.9°N, 92.48°W
Report Text: KIRK 240210Z AUTO 33015G25KT 4SM BR OVC005 08/08 A2929 RMK AO2 P0001 T00830083
Loading
Personal Weather Stations






























Interactive Weather Map New forecast layout! Learn more

10-Day Weather Forecast

Advertisements
Track Severe Weather on mobile